createdAt,value
2023-01-19T00:01:00.763Z,12.54
2023-01-19T00:06:06.584Z,12.34
2023-01-19T00:11:10.224Z,12.41
2023-01-19T00:16:15.532Z,12.20
2023-01-19T00:21:19.664Z,12.16
2023-01-19T00:26:23.306Z,12.17
2023-01-19T00:31:28.655Z,11.90
2023-01-19T00:36:32.606Z,11.89
2023-01-19T00:41:36.259Z,11.99
2023-01-19T00:46:41.567Z,12.07
2023-01-19T00:51:46.094Z,12.05
2023-01-19T00:56:49.705Z,12.07
2023-01-19T01:01:55.296Z,12.02
2023-01-19T01:06:59.043Z,11.92
2023-01-19T01:12:02.740Z,11.91
2023-01-19T01:17:09.087Z,11.96
2023-01-19T01:22:12.737Z,11.81
2023-01-19T01:27:16.448Z,11.85
2023-01-19T01:32:21.747Z,11.90
2023-01-19T01:37:25.386Z,11.82
2023-01-19T01:42:31.853Z,11.71
2023-01-19T01:47:42.274Z,11.68
2023-01-19T01:53:07.419Z,11.58
2023-01-19T01:58:13.450Z,11.62
2023-01-19T02:03:18.846Z,11.77
2023-01-19T02:08:28.555Z,11.76
2023-01-19T02:13:34.849Z,11.80
2023-01-19T02:18:41.105Z,11.96
2023-01-19T02:23:48.341Z,11.97
2023-01-19T02:28:57.419Z,11.95
2023-01-19T02:34:02.840Z,11.85
2023-01-19T02:39:11.453Z,11.95
2023-01-19T02:44:17.376Z,11.90
2023-01-19T02:49:21.033Z,11.87
2023-01-19T02:54:37.313Z,11.84
2023-01-19T02:59:56.402Z,11.87
2023-01-19T03:05:20.451Z,11.89
2023-01-19T03:10:35.282Z,11.91
2023-01-19T03:15:44.645Z,11.83
2023-01-19T03:20:51.836Z,11.85
2023-01-19T03:25:58.748Z,11.85
2023-01-19T03:31:06.484Z,11.81
2023-01-19T03:36:14.774Z,11.75
2023-01-19T03:41:23.004Z,11.73
2023-01-19T03:46:27.578Z,11.69
2023-01-19T03:51:31.367Z,11.70
2023-01-19T03:56:36.806Z,11.75
2023-01-19T04:01:40.485Z,11.70
2023-01-19T04:06:44.567Z,11.66
2023-01-19T04:11:49.892Z,11.75
2023-01-19T04:16:53.525Z,12.03
2023-01-19T04:21:57.140Z,11.95
2023-01-19T04:27:02.458Z,11.72
2023-01-19T04:32:06.636Z,11.69
2023-01-19T04:37:10.510Z,11.51
2023-01-19T04:42:15.823Z,11.53
2023-01-19T04:47:19.647Z,11.50
2023-01-19T04:52:23.327Z,11.65
2023-01-19T04:57:28.590Z,11.75
2023-01-19T05:02:32.247Z,11.75
2023-01-19T05:07:35.946Z,11.70
2023-01-19T05:12:41.221Z,11.31
2023-01-19T05:17:44.886Z,11.06
2023-01-19T05:22:50.800Z,10.94
2023-01-19T05:27:56.122Z,10.78
2023-01-19T05:33:00.606Z,10.58
2023-01-19T05:38:04.564Z,10.67
2023-01-19T05:43:09.907Z,10.54
2023-01-19T05:48:13.499Z,10.64
2023-01-19T05:53:18.079Z,10.66
2023-01-19T05:58:23.361Z,10.69
2023-01-19T06:03:27.085Z,10.68
2023-01-19T06:08:30.750Z,10.55
2023-01-19T06:13:36.228Z,10.40
2023-01-19T06:18:39.984Z,10.49
2023-01-19T06:23:43.580Z,10.50
2023-01-19T06:28:48.950Z,10.45
2023-01-19T06:33:52.585Z,10.46
2023-01-19T06:38:56.236Z,10.46
2023-01-19T06:44:01.722Z,10.32
2023-01-19T06:49:05.419Z,10.24
2023-01-19T06:54:09.146Z,10.15
2023-01-19T06:59:14.439Z,10.03
2023-01-19T07:04:18.064Z,10.03
2023-01-19T07:09:21.819Z,9.95
2023-01-19T07:14:27.168Z,9.74
2023-01-19T07:19:31.567Z,9.60
2023-01-19T07:24:35.195Z,9.35
2023-01-19T07:29:41.278Z,9.13
2023-01-19T07:34:44.932Z,9.19
2023-01-19T07:39:48.564Z,9.20
2023-01-19T07:44:53.874Z,9.25
2023-01-19T07:49:57.634Z,9.27
2023-01-19T07:55:01.297Z,9.28
2023-01-19T08:00:07.678Z,9.13
2023-01-19T08:05:11.482Z,9.07
2023-01-19T08:10:15.999Z,9.01
2023-01-19T08:15:21.498Z,9.02
2023-01-19T08:20:25.985Z,9.02
2023-01-19T08:25:33.991Z,8.93
2023-01-19T08:30:39.602Z,8.80
2023-01-19T08:35:44.281Z,8.76
2023-01-19T08:40:49.619Z,8.72
2023-01-19T08:45:54.954Z,8.68
2023-01-19T08:50:58.948Z,8.70
2023-01-19T08:56:02.638Z,8.65
2023-01-19T09:01:08.852Z,8.63
2023-01-19T09:06:14.175Z,8.67
2023-01-19T09:11:18.446Z,8.69
2023-01-19T09:16:23.867Z,8.66
2023-01-19T09:21:28.168Z,8.62
2023-01-19T09:26:33.100Z,8.57
2023-01-19T09:31:38.729Z,8.50
2023-01-19T09:36:42.390Z,8.53
2023-01-19T09:41:49.876Z,8.55
2023-01-19T09:46:55.262Z,8.45
2023-01-19T09:52:00.131Z,8.41
2023-01-19T09:57:05.020Z,8.46
2023-01-19T10:02:22.472Z,8.39
2023-01-19T10:07:53.882Z,8.36
2023-01-19T10:13:12.141Z,8.28
2023-01-19T10:18:24.027Z,8.24
2023-01-19T10:23:37.350Z,8.26
2023-01-19T10:28:41.525Z,8.30
2023-01-19T10:33:47.083Z,8.24
2023-01-19T10:38:50.896Z,8.31
2023-01-19T10:44:01.481Z,8.26
2023-01-19T10:49:07.480Z,8.30
2023-01-19T10:54:14.213Z,8.38
2023-01-19T10:59:32.955Z,8.35
2023-01-19T11:04:38.432Z,8.35
2023-01-19T11:09:42.173Z,8.38
2023-01-19T11:14:46.348Z,8.43
2023-01-19T11:20:02.567Z,8.46
2023-01-19T11:25:07.236Z,8.44
2023-01-19T11:30:22.912Z,8.42
2023-01-19T11:35:42.705Z,8.41
2023-01-19T11:40:53.272Z,8.34
2023-01-19T11:45:58.160Z,8.26
2023-01-19T11:51:06.596Z,8.21
2023-01-19T11:56:11.904Z,8.13
2023-01-19T12:01:21.953Z,7.91
2023-01-19T12:06:32.248Z,7.79
2023-01-19T12:11:39.508Z,7.69
2023-01-19T12:16:44.444Z,7.54
2023-01-19T12:21:50.586Z,7.36
2023-01-19T12:26:57.124Z,7.27
2023-01-19T12:32:20.282Z,7.27
2023-01-19T12:37:41.256Z,7.16
2023-01-19T12:42:48.167Z,7.01
2023-01-19T12:47:55.582Z,7.01
2023-01-19T12:53:03.435Z,7.08
2023-01-19T12:58:13.594Z,7.06
2023-01-19T13:03:58.418Z,7.16
2023-01-19T13:09:03.723Z,7.40
2023-01-19T13:14:36.476Z,7.52
2023-01-19T13:20:05.852Z,7.56
2023-01-19T13:25:13.708Z,7.62
2023-01-19T13:30:21.696Z,7.65
2023-01-19T13:35:25.603Z,7.67
2023-01-19T13:40:38.208Z,7.64
2023-01-19T13:45:42.630Z,7.74
2023-01-19T13:50:58.334Z,7.79
2023-01-19T13:56:18.617Z,7.77
2023-01-19T14:01:23.801Z,7.76
2023-01-19T14:06:35.421Z,7.65
2023-01-19T14:11:40.796Z,7.48
2023-01-19T14:16:45.107Z,7.38
2023-01-19T14:21:59.850Z,7.22
2023-01-19T14:27:21.606Z,7.11
2023-01-19T14:32:26.218Z,7.05
2023-01-19T14:37:32.100Z,6.83
2023-01-19T14:42:40.118Z,6.76
2023-01-19T14:47:45.747Z,6.65
2023-01-19T14:52:56.309Z,6.61
2023-01-19T14:58:01.660Z,6.60
2023-01-19T15:03:05.365Z,6.54
2023-01-19T15:08:11.911Z,6.46
2023-01-19T15:13:22.809Z,6.35
2023-01-19T15:18:28.182Z,6.31
2023-01-19T15:23:32.133Z,6.34
2023-01-19T15:28:37.447Z,6.34
2023-01-19T15:33:41.116Z,6.34
2023-01-19T15:38:44.895Z,6.42
2023-01-19T15:43:50.388Z,6.56
2023-01-19T15:48:54.904Z,6.65
2023-01-19T15:53:58.489Z,6.83
2023-01-19T15:59:03.766Z,6.83
2023-01-19T16:04:09.809Z,6.95
2023-01-19T16:09:13.472Z,7.02
2023-01-19T16:14:18.731Z,7.14
2023-01-19T16:19:22.352Z,7.25
2023-01-19T16:24:26.105Z,7.32
2023-01-19T16:29:31.508Z,7.68
2023-01-19T16:34:36.008Z,8.06
2023-01-19T16:39:39.844Z,8.44
2023-01-19T16:44:45.146Z,8.79
2023-01-19T16:49:48.817Z,9.09
2023-01-19T16:54:52.555Z,9.44
2023-01-19T16:59:57.834Z,9.71
2023-01-19T17:05:01.463Z,9.91
2023-01-19T17:10:05.734Z,10.18
2023-01-19T17:15:11.962Z,10.40
2023-01-19T17:20:15.876Z,10.70
2023-01-19T17:25:19.508Z,10.89
2023-01-19T17:30:24.874Z,11.17
2023-01-19T17:35:29.266Z,11.44
2023-01-19T17:40:33.760Z,11.48
2023-01-19T17:45:39.409Z,11.51
2023-01-19T17:50:43.092Z,11.66
2023-01-19T17:55:46.700Z,11.91
2023-01-19T18:00:52.015Z,11.88
2023-01-19T18:05:55.920Z,12.05
2023-01-19T18:11:00.816Z,12.28
2023-01-19T18:16:08.533Z,12.39
2023-01-19T18:21:14.013Z,12.57
2023-01-19T18:26:18.957Z,12.59
2023-01-19T18:31:24.360Z,12.57
2023-01-19T18:36:28.132Z,12.70
2023-01-19T18:41:31.917Z,12.61
2023-01-19T18:46:37.561Z,12.80
2023-01-19T18:51:41.503Z,12.92
2023-01-19T18:56:45.212Z,12.92
2023-01-19T19:01:50.597Z,12.95
2023-01-19T19:06:54.284Z,13.01
2023-01-19T19:11:58.255Z,12.96
2023-01-19T19:17:04.315Z,12.92
2023-01-19T19:22:07.162Z,12.97
2023-01-19T19:27:10.798Z,12.84
2023-01-19T19:32:16.774Z,12.96
2023-01-19T19:37:20.802Z,13.00
2023-01-19T19:42:24.620Z,13.04
2023-01-19T19:47:29.879Z,13.10
2023-01-19T19:52:38.027Z,13.05
2023-01-19T19:57:41.748Z,13.33
2023-01-19T20:02:47.009Z,13.56
2023-01-19T20:07:50.626Z,13.41
2023-01-19T20:12:54.290Z,13.67
2023-01-19T20:17:59.560Z,13.60
2023-01-19T20:23:03.362Z,13.58
2023-01-19T20:28:07.039Z,13.54
2023-01-19T20:33:13.490Z,13.77
2023-01-19T20:38:17.087Z,13.90
2023-01-19T20:43:20.767Z,14.10
2023-01-19T20:48:26.194Z,14.03
2023-01-19T20:53:30.043Z,13.95
2023-01-19T20:58:34.461Z,14.27
2023-01-19T21:03:39.782Z,14.17
2023-01-19T21:08:43.646Z,14.23
2023-01-19T21:13:47.449Z,14.11
2023-01-19T21:18:52.921Z,14.02
2023-01-19T21:23:58.075Z,13.80
2023-01-19T21:29:02.702Z,14.17
2023-01-19T21:34:08.009Z,14.19
2023-01-19T21:39:11.951Z,14.37
2023-01-19T21:44:15.946Z,14.63
2023-01-19T21:49:22.815Z,14.52
2023-01-19T21:54:26.937Z,14.44
2023-01-19T21:59:30.764Z,14.12
2023-01-19T22:04:36.901Z,13.97
2023-01-19T22:09:40.652Z,14.03
2023-01-19T22:14:44.255Z,14.00
2023-01-19T22:19:49.528Z,13.91
2023-01-19T22:24:53.451Z,14.02
2023-01-19T22:29:57.802Z,13.85
2023-01-19T22:35:03.147Z,13.97
2023-01-19T22:40:07.759Z,14.08
2023-01-19T22:45:12.198Z,14.09
2023-01-19T22:50:17.996Z,13.88
2023-01-19T22:55:21.638Z,13.67
2023-01-19T23:00:25.328Z,13.60
2023-01-19T23:05:30.663Z,13.62
2023-01-19T23:10:34.314Z,13.73
2023-01-19T23:15:38.013Z,13.71
2023-01-19T23:20:43.342Z,13.80
2023-01-19T23:25:47.027Z,13.61
2023-01-19T23:30:50.793Z,13.58
2023-01-19T23:35:57.825Z,13.52
2023-01-19T23:41:01.494Z,13.37
2023-01-19T23:46:05.456Z,13.38
2023-01-19T23:51:12.234Z,13.04
2023-01-19T23:56:17.644Z,13.03
